Qalandiyah, West Bank
Current Conditions -  °F | °C
As of 5:50 PM on Sunday 21 Dec 2014 (Local Time) from LLBG Reporting Station
Few Clouds Few Clouds  
Wind Chill: 63°   Ceiling: Unl
Heat Index: 63°   Visibility: 6mi
Dew Point: 52°   Wind: 3mph
Humidity: 68%   Direction: NA
Pressure: 30.12"   Gusts: NA
Location:  31.8°N, 35.25°E
Report Text: LLBG 211450Z VRB03KT 9999 FEW035 17/11 Q1020 NOSIG RMK SCT090
Loading
Personal Weather Stations






























Interactive Weather Map New forecast layout! Learn more

10-Day Weather Forecast

Advertisements
Track Severe Weather on mobile